Nearby METAR Reports

 

KNUQ - Moffett Nas/Mtn, California, USA
Distance from station: N 9mi, 14km
Updated: Sun, 16-Jan-2022 10:35am PST
Partly Cloudy
Partly Cloudy
 Wind from calm
Wind: Calm
Temperature: 57°F , 14°C
Dew Point: 48°F , 9°C
Humidity: 72%
Barometer: 30.14 inHg , 1020.7 hPa
Clouds: Partly Cloudy
Visibility: 10 miles , 16 km
Cloud details: Partly Cloudy 12000 ft
2022/01/16 18:35 KNUQ 161835Z AUTO 00000KT 10SM SCT120 14/09 A3014 RMK AO2
KSJC - San Jose, California, USA
Distance from station: NE 9mi, 14km
Updated: Sun, 16-Jan-2022 9:53am PST
Mostly Cloudy
Mostly Cloudy
 Wind from calm
Wind: Calm
Temperature: 55°F , 13°C
Dew Point: 46°F , 8°C
Humidity: 72%
Barometer: 30.14 inHg , 1020.7 hPa
Clouds: Mostly Cloudy
Visibility: 10 miles , 16 km
Cloud details: Few Clouds 6000 ft
Mostly Cloudy 12000 ft
Mostly Cloudy 16000 ft
2022/01/16 17:53 KSJC 161753Z 00000KT 10SM FEW060 BKN120 BKN160 13/08 A3014 RMK AO2 SLP205 T01280078 10128 20089 52002
 
KRHV - San Jose/Reid, California, USA
Distance from station: ENE 12mi, 19km
Updated: Sun, 16-Jan-2022 9:48am PST
Mostly Cloudy
Mostly Cloudy
 Wind from calm
Wind: Calm
Temperature: 55°F , 13°C
Dew Point: 45°F , 7°C
Humidity: 67%
Barometer: 30.14 inHg , 1020.7 hPa
Clouds: Mostly Cloudy
Visibility: 10 miles , 16 km
Cloud details: Mostly Cloudy 9000 ft
Mostly Cloudy 12000 ft
2022/01/16 17:48 KRHV 161748Z 00000KT 10SM BKN090 BKN120 13/07 A3014
KPAO - Palo Alto, California, USA
Distance from station: NNW 14mi, 23km
Updated: Sun, 16-Jan-2022 10:47am PST
Mostly Cloudy
Mostly Cloudy
 Wind from calm
Wind: Calm
Temperature: 55°F , 13°C
Dew Point: 48°F , 9°C
Humidity: 77%
Barometer: 30.15 inHg , 1021 hPa
Clouds: Mostly Cloudy
Visibility: 10 miles , 16 km
Cloud details: Mostly Cloudy 11000 ft
2022/01/16 18:47 KPAO 161847Z 00000KT 10SM BKN110 13/09 A3015
 
KSQL - San Carlos Airpo, California, USA
Distance from station: NW 21mi, 34km
Updated: Sun, 16-Jan-2022 10:47am PST
Mostly Cloudy
Mostly Cloudy
 Wind from varies
Wind: varies 3 mph , 6 km/h
Temperature: 54°F , 12°C
Dew Point: 48°F , 9°C
Humidity: 82%
Barometer: 30.15 inHg , 1021 hPa
Clouds: Mostly Cloudy
Visibility: 10 miles , 16 km
Cloud details: Mostly Cloudy 11000 ft
2022/01/16 18:47 KSQL 161847Z VRB03KT 10SM BKN110 12/09 A3015
KWVI - Watsonville, California, USA
Distance from station: SSE 27mi, 44km
Updated: Sun, 16-Jan-2022 9:53am PST
Clear
Clear
 Wind from S
Wind: S 3 mph , 6 km/h
Temperature: 57°F , 14°C
Dew Point: 45°F , 7°C
Humidity: 63%
Barometer: 30.12 inHg , 1020 hPa
Clouds: Clear
Visibility: 10 miles , 16 km
2022/01/16 17:53 KWVI 161753Z AUTO 17003KT 10SM CLR 14/07 A3012 RMK AO2 SLP200 T01440072 10150 20083 55000
 
KHWD - Hayward, California, USA
Distance from station: N 28mi, 44km
Updated: Sun, 16-Jan-2022 9:54am PST
Partly Cloudy
Partly Cloudy
 Wind from SE
Wind: SE 5 mph , 7 km/h
Temperature: 57°F , 14°C
Dew Point: 45°F , 7°C
Humidity: 63%
Barometer: 30.14 inHg , 1020.7 hPa
Clouds: Partly Cloudy
Visibility: 10 miles , 16 km
Cloud details: Partly Cloudy 12000 ft
2022/01/16 17:54 KHWD 161754Z 14004KT 10SM SCT120 14/07 A3014 RMK AO2 SLP214 T01390072 10139 20106 51004
KSFO - San Francisco, California, USA
Distance from station: NW 30mi, 49km
Updated: Sun, 16-Jan-2022 9:56am PST
Mostly Cloudy
Mostly Cloudy
 Wind from calm
Wind: Calm
Temperature: 54°F , 12°C
Dew Point: 48°F , 9°C
Humidity: 82%
Barometer: 30.13 inHg , 1020.3 hPa
Clouds: Mostly Cloudy
Visibility: 10 miles , 16 km
Cloud details: Few Clouds 9000 ft
Mostly Cloudy 11000 ft
Mostly Cloudy 20000 ft
2022/01/16 17:56 KSFO 161756Z 00000KT 10SM FEW090 BKN110 BKN200 12/09 A3013 RMK AO2 SLP203 T01220089 10122 20111 50002
 
KHAF - Half Moon Bay, California, USA
Distance from station: WNW 31mi, 50km
Updated: Sun, 16-Jan-2022 10:35am PST
Haze, Few clouds
Haze, Few clouds
 Wind from calm
Wind: Calm
Temperature: 61°F , 16°C
Dew Point: 46°F , 8°C
Humidity: 59%
Barometer: 30.13 inHg , 1020.3 hPa
Summary: Haze
Clouds: Few Clouds
Visibility: 3 miles , 5 km
Cloud details: Few Clouds 12000 ft
2022/01/16 18:35 KHAF 161835Z AUTO 00000KT 3SM HZ FEW120 16/08 A3013 RMK AO2
KOAK - Oakland, California, USA
Distance from station: NNW 31mi, 50km
Updated: Sun, 16-Jan-2022 9:53am PST
Mostly Cloudy
Mostly Cloudy
 Wind from calm
Wind: Calm
Temperature: 54°F , 12°C
Dew Point: 48°F , 9°C
Humidity: 82%
Barometer: 30.15 inHg , 1021 hPa
Clouds: Mostly Cloudy
Visibility: 10 miles , 16 km
Cloud details: Mostly Cloudy 12000 ft
2022/01/16 17:53 KOAK 161753Z 00000KT 10SM BKN120 12/09 A3015 RMK AO2 SLP208 T01220089 10122 20094 51004 $
 
KLVK - Livermore, California, USA
Distance from station: NNE 31mi, 51km
Updated: Sun, 16-Jan-2022 9:53am PST

 Wind from calm
Wind: Calm
Temperature: 52°F , 11°C
Dew Point: 45°F , 7°C
Humidity: 77%
Barometer: 30.15 inHg , 1021 hPa
Visibility: 10 miles , 16 km
2022/01/16 17:53 KLVK 161753Z 00000KT 10SM 11/07 A3015 RMK AO2 SLP207 T01060067 10106 20061 53003
KCVH - Hollister Muni, California, USA
Distance from station: SE 42mi, 68km
Updated: Sun, 16-Jan-2022 10:35am PST
Clear
Clear
 Wind from calm
Wind: Calm
Temperature: 55°F , 13°C
Dew Point: 46°F , 8°C
Humidity: 72%
Barometer: 30.14 inHg , 1020.7 hPa
Clouds: Clear
Visibility: 10 miles , 16 km
2022/01/16 18:35 KCVH 161835Z AUTO 00000KT 10SM CLR 13/08 A3014 RMK A01
 
KSNS - Salinas, California, USA
Distance from station: SSE 48mi, 77km
Updated: Sun, 16-Jan-2022 9:53am PST
Partly Cloudy
Partly Cloudy
 Wind from SE
Wind: SE 12 mph , 19 km/h
Temperature: 61°F , 16°C
Dew Point: 46°F , 8°C
Humidity: 59%
Barometer: 30.11 inHg , 1019.6 hPa
Clouds: Partly Cloudy
Visibility: 10 miles , 16 km
Cloud details: Partly Cloudy 10000 ft
2022/01/16 17:53 KSNS 161753Z 13010KT 10SM SCT100 16/08 A3011 RMK AO2 SLP207 60000 T01560078 10156 20111 51003
KMRY - Monterey, California, USA
Distance from station: SSE 49mi, 78km
Updated: Sun, 16-Jan-2022 9:54am PST
Clear
Clear
 Wind from calm
Wind: Calm
Temperature: 61°F , 16°C
Dew Point: 43°F , 6°C
Humidity: 52%
Barometer: 30.11 inHg , 1019.6 hPa
Clouds: Clear
Visibility: 10 miles , 16 km
2022/01/16 17:54 KMRY 161754Z 00000KT 10SM CLR 16/06 A3011 RMK AO2 SLP209 T01560061 10156 20100 50002
 
KCCR - Concord, California, USA
Distance from station: N 50mi, 81km
Updated: Sun, 16-Jan-2022 10:30am PST
Fog, Overcast
Fog, Overcast
 Wind from NNW
Wind: NNW 5 mph , 7 km/h
Temperature: 46°F , 8°C
Wind Chill: 44°F , 7°C
Dew Point: 46°F , 8°C
Humidity: 100%
Barometer: 30.17 inHg , 1021.7 hPa
Summary: Fog
Clouds: Overcast
Visibility: 1/4 mile , 0.4 km
Cloud details: Overcast 200 ft
2022/01/16 18:30 KCCR 161830Z 34004KT 1/4SM FG VV002 08/08 A3017 RMK AO2 T00830078

Metar display script from Saratoga-Weather.org